Time;durP1;ratioP1;P1;durP2;ratioP2;P2;SDS_P1;SDS_P2;PMS_P1;PMS_P2;Temp;Humidity;BMP_temperature;BMP_pressure;BME280_temperature;BME280_humidity;BME280_pressure;Samples;Min_cycle;Max_cycle;Signal;HPM_P1;HPM_P2
2022/09/06 00:00:56;;;;;;;8.25;3.78;;;;;;;20.26;100.00;165868.50;4991536;28;20038;-69
2022/09/06 00:03:21;;;;;;;11.35;4.38;;;;;;;20.22;100.00;165857.66;4993038;28;20112;-69
2022/09/06 00:05:47;;;;;;;6.93;4.75;;;;;;;20.06;100.00;165815.59;4991274;28;20054;-69
2022/09/06 00:08:13;;;;;;;7.05;3.67;;;;;;;20.07;100.00;165818.28;4993379;28;20034;-69
2022/09/06 00:10:39;;;;;;;3.75;3.05;;;;;;;20.03;100.00;165807.44;4991064;28;20038;-69
2022/09/06 00:13:06;;;;;;;3.22;2.92;;;;;;;19.92;100.00;165780.28;4993354;28;20026;-69
2022/09/06 00:15:32;;;;;;;4.07;3.13;;;;;;;19.87;100.00;165766.72;4991147;28;20042;-68
2022/09/06 00:17:59;;;;;;;3.60;3.25;;;;;;;19.86;100.00;165764.00;4992882;28;20030;-68
2022/09/06 00:20:26;;;;;;;5.40;3.50;;;;;;;19.77;100.00;165739.56;4991305;28;20042;-68
2022/09/06 00:22:55;;;;;;;6.18;3.60;;;;;;;19.76;100.00;165736.84;4992885;28;20073;-68
2022/09/06 00:25:21;;;;;;;6.32;3.83;;;;;;;19.73;100.00;165728.69;4990670;28;20141;-68
2022/09/06 00:27:46;;;;;;;7.65;3.60;;;;;;;19.66;100.00;165711.03;4992668;28;20026;-68
2022/09/06 00:30:11;;;;;;;7.00;4.13;;;;;;;19.56;100.00;165685.25;4991244;28;20054;-68
2022/09/06 00:32:37;;;;;;;4.85;4.43;;;;;;;19.48;100.00;165663.53;4992311;28;20019;-68
2022/09/06 00:35:02;;;;;;;6.82;3.88;;;;;;;19.41;100.00;165644.53;4991075;28;20432;-68
2022/09/06 00:37:28;;;;;;;9.98;3.92;;;;;;;19.33;100.00;165625.56;4992645;28;20497;-68
2022/09/06 00:39:53;;;;;;;7.65;3.67;;;;;;;19.31;100.00;165620.16;4990549;28;20031;-68
2022/09/06 00:42:18;;;;;;;3.88;3.42;;;;;;;19.26;100.00;165606.56;4992269;28;20034;-68
2022/09/06 00:44:44;;;;;;;11.15;4.18;;;;;;;19.20;100.00;165590.28;4990334;28;20042;-68
2022/09/06 00:47:09;;;;;;;7.28;4.05;;;;;;;19.14;100.00;165574.03;4992158;28;20030;-68
2022/09/06 00:49:42;;;;;;;3.95;3.58;;;;;;;19.08;100.00;165557.75;4990909;28;20038;-67
2022/09/06 00:52:10;;;;;;;8.80;3.60;;;;;;;19.02;100.00;165544.16;4992546;28;20026;-67
2022/09/06 00:54:36;;;;;;;;;;;;;;;18.99;100.00;165536.03;4990528;28;20489;-67
2022/09/06 00:57:02;;;;;;;7.57;4.97;;;;;;;18.95;100.00;165523.81;4992622;28;19909;-67
2022/09/06 00:59:31;;;;;;;5.45;4.10;;;;;;;18.87;100.00;165503.47;4991116;28;20042;-67
2022/09/06 01:01:57;;;;;;;5.78;4.40;;;;;;;18.78;100.00;165479.03;4991761;28;20030;-67
2022/09/06 01:04:23;;;;;;;8.73;4.68;;;;;;;18.75;100.00;165470.88;4990589;28;20061;-67
2022/09/06 01:07:13;;;;;;;7.53;4.38;;;;;;;18.70;100.00;165460.03;4992149;28;20022;-67
2022/09/06 01:10:09;;;;;;;5.47;3.83;;;;;;;18.61;100.00;165434.28;4989867;28;20606;-67
2022/09/06 01:12:35;;;;;;;4.60;4.20;;;;;;;18.47;100.00;165397.66;4992066;28;20018;-67
2022/09/06 01:15:17;;;;;;;8.77;3.22;;;;;;;18.38;100.00;165375.94;4990451;28;20475;-67
2022/09/06 01:18:10;;;;;;;5.95;3.58;;;;;;;18.33;100.00;165362.41;4991428;28;20121;-66
2022/09/06 01:20:56;;;;;;;5.15;4.15;;;;;;;18.30;100.00;165354.25;4985165;28;20125;-66
2022/09/06 01:23:50;;;;;;;4.32;3.92;;;;;;;18.32;100.00;165358.31;4991460;28;20034;-66
2022/09/06 01:26:40;;;;;;;9.50;4.78;;;;;;;18.33;100.00;165362.41;4952054;28;20085;-66
2022/09/06 01:29:34;;;;;;;7.45;4.30;;;;;;;18.36;100.00;165370.50;4951751;28;20047;-66
2022/09/06 01:32:09;;;;;;;8.25;5.18;;;;;;;18.37;100.00;165373.22;4952291;28;20039;-66
2022/09/06 01:34:40;;;;;;;7.28;4.28;;;;;;;18.39;100.00;165378.66;4960270;28;20077;-66
2022/09/06 01:37:11;;;;;;;4.65;4.22;;;;;;;18.35;100.00;165367.84;4972388;28;20031;-65
2022/09/06 01:39:38;;;;;;;4.88;3.75;;;;;;;18.43;100.00;165386.81;4969847;28;20548;-66
2022/09/06 01:42:25;;;;;;;6.53;5.20;;;;;;;18.44;100.00;165390.88;4970892;28;20031;-66
2022/09/06 01:45:03;;;;;;;8.50;5.25;;;;;;;18.39;100.00;165378.66;4970342;28;20050;-66
2022/09/06 01:47:50;;;;;;;10.90;6.20;;;;;;;18.40;100.00;165380.00;4972391;28;20365;-66
2022/09/06 01:50:34;;;;;;;6.30;5.45;;;;;;;18.37;100.00;165373.22;4970801;28;20062;-66
2022/09/06 01:53:08;;;;;;;18.05;6.55;;;;;;;18.36;100.00;165370.50;4972206;28;20030;-66
2022/09/06 01:55:51;;;;;;;8.57;6.07;;;;;;;18.39;100.00;165378.66;4970096;28;20487;-65
2022/09/06 01:58:35;;;;;;;9.73;6.70;;;;;;;18.42;100.00;165384.09;4972120;28;20038;-65
2022/09/06 02:01:36;;;;;;;8.05;5.63;;;;;;;18.43;100.00;165386.81;4970596;28;20117;-65
2022/09/06 02:04:19;;;;;;;22.80;7.88;;;;;;;18.46;100.00;165394.94;4974576;28;20559;-66
2022/09/06 02:06:49;;;;;;;12.23;8.07;;;;;;;18.48;100.00;165400.38;4991396;28;20031;-66
2022/09/06 02:09:20;;;;;;;6.45;5.85;;;;;;;18.48;100.00;165400.38;4989901;28;20042;-66
2022/09/06 02:11:53;;;;;;;15.23;6.25;;;;;;;18.49;100.00;165404.44;4991263;28;20033;-67
2022/09/06 02:14:30;;;;;;;11.25;7.03;;;;;;;18.53;100.00;165415.31;4989699;28;20046;-67
2022/09/06 02:16:58;;;;;;;11.45;7.30;;;;;;;18.53;100.00;165413.91;4991192;28;20512;-67
2022/09/06 02:19:36;;;;;;;10.73;7.22;;;;;;;18.56;100.00;165422.06;4990117;28;20133;-67
2022/09/06 02:22:04;;;;;;;;;;;;;;;18.58;100.00;165426.13;4992092;28;20102;-68
2022/09/06 02:24:35;;;;;;;10.43;7.20;;;;;;;18.58;100.00;165427.47;4989442;28;20340;-67
2022/09/06 02:27:01;;;;;;;7.32;6.50;;;;;;;18.53;100.00;165413.91;4991594;28;20050;-68
2022/09/06 02:29:26;;;;;;;14.32;7.47;;;;;;;18.48;100.00;165400.38;4989671;28;20561;-66
2022/09/06 02:32:13;;;;;;;12.18;7.80;;;;;;;18.47;100.00;165397.66;4990568;28;20033;-66
2022/09/06 02:34:39;;;;;;;9.07;8.27;;;;;;;18.46;100.00;165394.94;4992576;28;20046;-66
2022/09/06 02:37:06;;;;;;;15.27;8.35;;;;;;;18.47;100.00;165399.00;4995248;28;20553;-66
2022/09/06 02:39:31;;;;;;;13.07;7.75;;;;;;;18.45;100.00;165392.22;4993038;28;20048;-68
2022/09/06 02:41:58;;;;;;;20.45;8.55;;;;;;;18.36;100.00;165370.50;4994775;28;20026;-67
2022/09/06 02:44:23;;;;;;;9.73;8.68;;;;;;;18.34;100.00;165363.75;4993117;28;20043;-68
2022/09/06 02:46:48;;;;;;;9.23;8.10;;;;;;;18.30;100.00;165354.25;4994453;28;20042;-67
2022/09/06 02:49:14;;;;;;;12.18;7.90;;;;;;;18.26;100.00;165343.44;4993316;28;20042;-67
2022/09/06 02:51:39;;;;;;;11.13;9.93;;;;;;;18.23;100.00;165335.28;4994345;28;20049;-67
2022/09/06 02:54:05;;;;;;;11.45;9.77;;;;;;;18.21;100.00;165329.84;4992599;28;20042;-67
2022/09/06 02:56:32;;;;;;;10.27;7.78;;;;;;;18.20;100.00;165327.16;4994612;28;20437;-67
2022/09/06 02:58:58;;;;;;;16.17;10.07;;;;;;;18.17;100.00;165320.34;4993268;28;20042;-67
2022/09/06 03:01:24;;;;;;;14.55;8.40;;;;;;;18.15;100.00;165313.56;4993803;28;20030;-67
2022/09/06 03:03:49;;;;;;;9.38;8.48;;;;;;;18.13;100.00;165308.19;4993170;28;20023;-67
2022/09/06 03:06:14;;;;;;;15.80;8.65;;;;;;;18.00;100.00;165274.28;4994287;28;20027;-68
2022/09/06 03:08:40;;;;;;;11.38;9.90;;;;;;;17.81;100.00;165225.41;4992637;28;20077;-67
2022/09/06 03:11:05;;;;;;;16.65;8.32;;;;;;;17.80;100.00;165222.69;4994021;28;20417;-68
2022/09/06 03:13:30;;;;;;;12.27;9.02;;;;;;;17.79;100.00;165220.00;4994619;28;20026;-68
2022/09/06 03:15:57;;;;;;;18.92;9.35;;;;;;;17.87;100.00;165240.31;4992106;28;20042;-68
2022/09/06 03:18:23;;;;;;;14.60;9.70;;;;;;;17.94;100.00;165259.31;4994035;28;20093;-68
2022/09/06 03:20:50;;;;;;;10.65;9.63;;;;;;;17.93;100.00;165256.59;4992089;28;20501;-68
2022/09/06 03:23:16;;;;;;;11.85;8.73;;;;;;;17.86;100.00;165239.00;4994169;28;20030;-68
2022/09/06 03:25:43;;;;;;;21.95;9.95;;;;;;;17.83;100.00;165229.50;4992135;28;20034;-67
2022/09/06 03:28:08;;;;;;;14.48;10.13;;;;;;;17.82;100.00;165226.78;4994063;28;20058;-67
2022/09/06 03:30:34;;;;;;;20.25;10.38;;;;;;;17.82;100.00;165226.78;4991394;28;20058;-67
2022/09/06 03:32:59;;;;;;;12.13;9.23;;;;;;;17.83;100.00;165229.50;4993502;28;20029;-67
2022/09/06 03:35:24;;;;;;;11.88;8.15;;;;;;;17.86;100.00;165237.59;4992522;28;20042;-66
2022/09/06 03:37:50;;;;;;;17.70;10.10;;;;;;;17.87;100.00;165240.31;4993299;28;20382;-66
2022/09/06 03:40:15;;;;;;;10.63;7.97;;;;;;;17.81;100.00;165225.41;4991995;28;20108;-68
2022/09/06 03:42:40;;;;;;;17.25;10.18;;;;;;;17.77;100.00;165214.56;4993518;28;20076;-66
2022/09/06 03:45:06;;;;;;;35.08;10.57;;;;;;;17.77;100.00;165214.56;4991518;28;20038;-66
2022/09/06 03:47:32;;;;;;;8.13;7.32;;;;;;;17.74;100.00;165207.81;4993495;28;20033;-66
2022/09/06 03:49:57;;;;;;;13.77;8.27;;;;;;;17.69;100.00;165194.22;4991461;28;20042;-67
2022/09/06 03:52:22;;;;;;;10.60;9.30;;;;;;;17.73;100.00;165205.09;4993081;28;20470;-71
2022/09/06 03:54:48;;;;;;;16.58;10.52;;;;;;;17.81;100.00;165224.06;4991947;28;20394;-67
2022/09/06 03:57:13;;;;;;;14.73;9.15;;;;;;;17.73;100.00;165205.09;4993308;28;20033;-67
2022/09/06 03:59:38;;;;;;;13.65;8.93;;;;;;;17.73;100.00;165205.09;4991114;28;20042;-67
2022/09/06 04:02:05;;;;;;;15.05;8.35;;;;;;;17.74;100.00;165207.81;4993262;28;20027;-67
2022/09/06 04:04:30;;;;;;;14.20;7.97;;;;;;;17.75;100.00;165210.53;4992198;28;20073;-67
2022/09/06 04:06:56;;;;;;;13.55;9.07;;;;;;;17.78;100.00;165217.31;4992607;28;20023;-66
2022/09/06 04:09:21;;;;;;;11.32;9.15;;;;;;;17.82;100.00;165226.78;4991399;28;20073;-67
2022/09/06 04:11:46;;;;;;;12.93;9.00;;;;;;;17.85;100.00;165234.88;4991828;28;20022;-67
2022/09/06 04:14:12;;;;;;;10.88;8.40;;;;;;;17.85;100.00;165234.88;4976216;28;20484;-66
2022/09/06 04:16:37;;;;;;;10.45;8.43;;;;;;;17.83;100.00;165230.84;4992752;28;20027;-66
2022/09/06 04:19:03;;;;;;;12.52;8.63;;;;;;;17.87;100.00;165240.31;4991507;28;20117;-66
2022/09/06 04:21:29;;;;;;;12.05;9.05;;;;;;;17.89;100.00;165247.09;4992069;28;20095;-66
2022/09/06 04:23:54;;;;;;;13.70;9.95;;;;;;;17.91;100.00;165252.53;4993611;28;20105;-66
2022/09/06 04:26:19;;;;;;;13.07;9.88;;;;;;;17.95;100.00;165260.63;5004141;28;20038;-66
2022/09/06 04:28:45;;;;;;;14.63;10.00;;;;;;;17.94;100.00;165259.31;4990903;28;20034;-66
2022/09/06 04:31:10;;;;;;;13.73;9.57;;;;;;;17.94;100.00;165259.31;4991933;28;20050;-66
2022/09/06 04:33:37;;;;;;;18.52;10.07;;;;;;;17.89;100.00;165247.09;4992152;28;20026;-66
2022/09/06 04:36:05;;;;;;;13.82;10.98;;;;;;;17.93;100.00;165256.59;4991085;28;20116;-66
2022/09/06 04:38:34;;;;;;;17.92;11.57;;;;;;;17.90;100.00;165249.81;4992434;28;20029;-66
2022/09/06 04:41:00;;;;;;;14.82;10.68;;;;;;;17.90;100.00;165248.47;4990486;28;20064;-67
2022/09/06 04:43:25;;;;;;;16.40;11.27;;;;;;;17.83;100.00;165230.84;4992530;28;20514;-68
2022/09/06 04:45:50;;;;;;;18.90;13.52;;;;;;;17.79;100.00;165218.63;4990519;28;20058;-67
2022/09/06 04:48:16;;;;;;;25.30;14.65;;;;;;;17.74;100.00;165207.81;4992780;28;20019;-67
2022/09/06 04:50:41;;;;;;;23.30;14.35;;;;;;;17.70;100.00;165195.59;4990867;28;20405;-67
2022/09/06 04:53:09;;;;;;;24.10;13.75;;;;;;;17.59;100.00;165167.16;4992101;28;20030;-68
2022/09/06 04:55:36;;;;;;;19.67;14.98;;;;;;;17.59;100.00;165167.16;4990723;28;20038;-68
2022/09/06 04:58:02;;;;;;;21.10;14.75;;;;;;;17.51;100.00;165146.78;4991619;28;20080;-68
2022/09/06 05:00:29;;;;;;;16.17;14.48;;;;;;;17.42;100.00;165123.75;4990581;28;20120;-73
2022/09/06 05:02:54;;;;;;;20.52;15.23;;;;;;;17.39;100.00;165115.59;4992099;28;20026;-72
2022/09/06 05:05:21;;;;;;;17.60;15.80;;;;;;;17.39;100.00;165115.59;4990584;28;20046;-72
2022/09/06 05:07:46;;;;;;;24.92;17.25;;;;;;;17.39;100.00;165115.59;4991899;28;20060;-71
2022/09/06 05:10:11;;;;;;;28.13;17.05;;;;;;;17.39;100.00;165114.28;4990882;28;20042;-70
2022/09/06 05:12:37;;;;;;;19.23;15.93;;;;;;;17.37;100.00;165110.22;4991909;28;20022;-70
2022/09/06 05:15:02;;;;;;;30.48;18.15;;;;;;;17.37;100.00;165108.84;4990461;28;20038;-70
2022/09/06 05:17:27;;;;;;;20.80;18.63;;;;;;;17.34;100.00;165100.75;4992091;28;20026;-74
2022/09/06 05:19:53;;;;;;;24.15;17.90;;;;;;;17.32;100.00;165096.63;4990348;28;20037;-74
2022/09/06 05:22:18;;;;;;;24.38;18.52;;;;;;;17.35;100.00;165103.47;4991580;28;20026;-70
2022/09/06 05:24:43;;;;;;;23.52;18.42;;;;;;;17.34;100.00;165100.75;4990288;28;20043;-66
2022/09/06 05:27:11;;;;;;;21.85;17.98;;;;;;;17.33;100.00;165099.34;4991783;28;20033;-69
2022/09/06 05:29:36;;;;;;;23.27;18.45;;;;;;;17.34;100.00;164847.94;4989648;28;20548;-70
2022/09/06 05:32:02;;;;;;;26.05;20.13;;;;;;;17.34;100.00;163479.69;4991785;28;20058;-69
2022/09/06 05:34:27;;;;;;;22.00;17.00;;;;;;;17.29;100.00;161412.19;4990188;28;20038;-69
2022/09/06 05:36:52;;;;;;;28.02;19.73;;;;;;;17.31;100.00;157596.50;4991441;28;20018;-72
2022/09/06 05:39:20;;;;;;;21.52;18.08;;;;;;;17.32;100.00;154388.75;4990347;28;20383;-68
2022/09/06 05:41:45;;;;;;;24.90;18.75;;;;;;;17.35;100.00;152612.59;4991232;28;20482;-68
2022/09/06 05:44:10;;;;;;;22.35;18.38;;;;;;;17.36;100.00;151903.50;4990026;28;20039;-71
2022/09/06 05:46:44;;;;;;;26.38;18.27;;;;;;;17.41;100.00;151203.19;4991353;28;20077;-70
2022/09/06 05:49:10;;;;;;;24.50;18.33;;;;;;;17.47;100.00;154780.81;4990083;28;20042;-70
2022/09/06 05:51:35;;;;;;;24.63;17.20;;;;;;;17.40;100.00;162351.19;4991404;28;20118;-61
2022/09/06 05:54:00;;;;;;;21.13;16.80;;;;;;;17.34;100.00;165102.06;4990416;28;20068;-61
2022/09/06 05:56:26;;;;;;;24.45;18.48;;;;;;;17.27;100.00;165083.09;4991520;28;20382;-61
2022/09/06 05:58:51;;;;;;;22.88;19.40;;;;;;;17.22;100.00;165070.91;4989732;28;20026;-61
2022/09/06 06:01:23;;;;;;;25.05;18.80;;;;;;;17.16;100.00;164905.34;4991727;28;20098;-60
2022/09/06 06:03:56;;;;;;;33.15;19.25;;;;;;;17.11;100.00;163370.44;4989891;28;20030;-61
2022/09/06 06:06:23;;;;;;;24.48;21.00;;;;;;;17.19;100.00;160189.06;4991124;28;20046;-61
2022/09/06 06:08:48;;;;;;;22.17;18.15;;;;;;;17.21;100.00;157570.66;4992419;28;20112;-61
2022/09/06 06:11:15;;;;;;;25.65;19.13;;;;;;;17.24;100.00;154725.03;4995690;28;20466;-61
2022/09/06 06:13:41;;;;;;;21.50;19.15;;;;;;;17.25;100.00;152945.19;4993352;28;20317;-61
2022/09/06 06:16:09;;;;;;;26.05;20.92;;;;;;;17.26;100.00;151166.06;4995622;28;20049;-61
2022/09/06 06:18:35;;;;;;;21.30;18.73;;;;;;;17.40;100.00;149418.19;4995224;28;20026;-61
2022/09/06 06:21:19;;;;;;;22.02;19.63;;;;;;;17.51;100.00;148020.31;4993414;28;20092;-61
2022/09/06 06:23:47;;;;;;;21.70;19.38;;;;;;;17.60;100.00;147328.63;4993576;28;20548;-61
2022/09/06 06:26:13;;;;;;;24.75;21.38;;;;;;;17.68;100.00;148059.06;4994979;28;20032;-61
2022/09/06 06:28:39;;;;;;;21.83;19.38;;;;;;;17.76;100.00;148435.91;4993191;28;20027;-61
2022/09/06 06:31:06;;;;;;;33.40;20.42;;;;;;;17.85;100.00;147386.41;4994952;28;20046;-61
2022/09/06 06:33:32;;;;;;;22.15;18.65;;;;;;;17.96;100.00;146344.16;4994713;28;20038;-58
2022/09/06 06:36:12;;;;;;;20.23;17.95;;;;;;;18.15;100.00;147456.34;4993300;28;20038;-58
2022/09/06 06:38:42;;;;;;;25.55;19.38;;;;;;;18.29;100.00;148203.16;4994710;28;20109;-58
2022/09/06 06:41:10;;;;;;;19.42;17.02;;;;;;;18.38;100.00;152149.81;4993599;28;20045;-58
2022/09/06 06:43:36;;;;;;;21.35;19.15;;;;;;;18.49;100.00;160539.91;4994039;28;20026;-59
2022/09/06 06:46:23;;;;;;;23.30;19.65;;;;;;;18.57;100.00;165424.78;4993147;28;20098;-58
2022/09/06 06:48:48;;;;;;;24.58;19.35;;;;;;;18.69;100.00;165457.31;4993188;28;20068;-58
2022/09/06 06:51:16;;;;;;;21.55;17.98;;;;;;;18.81;100.00;165487.13;4994178;28;20026;-58
2022/09/06 06:53:42;;;;;;;19.35;17.38;;;;;;;18.92;100.00;165515.66;4991092;28;20038;-58
2022/09/06 06:56:20;;;;;;;20.52;18.05;;;;;;;18.96;100.00;165527.88;5003798;28;20018;-58
2022/09/06 06:58:48;;;;;;;19.58;16.90;;;;;;;19.09;100.00;165560.47;5011050;28;20037;-58
2022/09/06 07:01:18;;;;;;;17.88;16.08;;;;;;;19.16;100.00;165579.47;4993853;28;20109;-58
2022/09/06 07:03:44;;;;;;;19.77;16.95;;;;;;;19.17;100.00;165582.19;4992693;28;20479;-58
2022/09/06 07:06:09;;;;;;;25.38;17.45;;;;;;;19.18;100.00;165584.84;4993823;28;20023;-58
2022/09/06 07:08:36;;;;;;;22.63;16.52;;;;;;;19.17;100.00;165582.19;4994155;28;20470;-58
2022/09/06 07:11:03;;;;;;;20.27;17.63;;;;;;;19.17;100.00;165582.19;4992711;28;20514;-58
2022/09/06 07:13:29;;;;;;;19.15;17.15;;;;;;;19.20;100.00;165590.28;4993510;28;20065;-58
2022/09/06 07:16:17;;;;;;;19.30;16.77;;;;;;;19.33;100.00;165624.22;4991177;28;20031;-58
2022/09/06 07:18:44;;;;;;;23.50;17.73;;;;;;;19.47;100.00;165662.19;4992441;28;20069;-58
2022/09/06 07:21:24;;;;;;;25.85;18.52;;;;;;;19.60;100.00;165696.13;4992502;28;20018;-58
2022/09/06 07:23:50;;;;;;;25.17;16.50;;;;;;;19.80;100.00;165747.69;4992239;28;20525;-58
2022/09/06 07:26:18;;;;;;;30.08;17.58;;;;;;;20.04;100.00;165810.16;4993632;28;20069;-58
2022/09/06 07:28:45;;;;;;;29.48;17.67;;;;;;;20.31;100.00;165880.72;4992195;28;20030;-58
2022/09/06 07:31:11;;;;;;;21.08;15.38;;;;;;;20.51;100.00;165935.06;4993576;28;20046;-58
2022/09/06 07:33:37;;;;;;;20.15;14.75;;;;;;;20.73;100.00;165992.13;4991994;28;20505;-58
2022/09/06 07:36:05;;;;;;;25.55;15.10;;;;;;;20.96;100.00;166051.88;4993429;28;20455;-60
2022/09/06 07:38:31;;;;;;;22.98;15.38;;;;;;;21.29;100.00;166140.13;4993699;28;20022;-59
2022/09/06 07:41:01;;;;;;;22.52;16.20;;;;;;;21.89;100.00;166296.34;4991949;28;20049;-59
2022/09/06 07:43:27;;;;;;;16.17;14.52;;;;;;;22.67;100.00;166502.97;4993607;28;20033;-59
2022/09/06 07:46:19;;;;;;;20.40;15.73;;;;;;;23.50;100.00;166720.44;4991957;28;20053;-59
2022/09/06 07:48:45;;;;;;;17.27;13.07;;;;;;;23.91;100.00;166829.25;4989576;28;20042;-58
2022/09/06 07:51:13;;;;;;;14.40;12.52;;;;;;;24.40;100.00;166959.84;4993587;28;20018;-58
2022/09/06 07:53:40;;;;;;;15.32;13.85;;;;;;;24.68;100.00;167033.38;4990462;28;20533;-58
2022/09/06 07:56:08;;;;;;;14.32;12.80;;;;;;;24.51;100.00;166987.06;4993041;28;20023;-58
2022/09/06 07:58:34;;;;;;;19.25;15.27;;;;;;;24.35;100.00;166944.91;4991817;28;20023;-58
2022/09/06 08:01:18;;;;;;;14.90;12.57;;;;;;;24.21;100.00;166908.19;4993405;28;20018;-59
2022/09/06 08:03:45;;;;;;;18.20;13.07;;;;;;;24.09;100.00;166876.91;4990952;28;20026;-58
2022/09/06 08:06:11;;;;;;;17.02;13.05;;;;;;;23.94;100.00;166837.44;4993036;28;20061;-59
2022/09/06 08:08:37;;;;;;;19.75;13.13;;;;;;;23.82;100.00;166804.75;4991444;28;20058;-58
2022/09/06 08:11:02;;;;;;;13.68;12.30;;;;;;;23.86;100.00;166815.66;4993010;28;20097;-59
2022/09/06 08:13:28;;;;;;;14.85;13.32;;;;;;;24.11;100.00;166880.97;4993262;28;20045;-58
2022/09/06 08:16:03;;;;;;;15.75;11.02;;;;;;;24.30;100.00;166932.66;4991246;28;20108;-59
2022/09/06 08:18:28;;;;;;;15.07;12.48;;;;;;;24.65;100.00;167025.16;4992565;28;20085;-59
2022/09/06 08:20:54;;;;;;;13.32;10.02;;;;;;;25.36;100.00;167211.59;4991228;28;20046;-59
2022/09/06 08:23:19;;;;;;;10.48;9.43;;;;;;;25.73;100.00;167309.63;4992802;28;20066;-59
2022/09/06 08:25:55;;;;;;;9.55;8.65;;;;;;;25.94;100.00;167365.44;4987518;28;20066;-59
2022/09/06 08:28:21;;;;;;;11.60;9.05;;;;;;;26.06;100.00;167395.38;4972992;28;20027;-59
2022/09/06 08:30:46;;;;;;;10.05;9.15;;;;;;;25.77;100.00;167320.50;4971303;28;20055;-59
2022/09/06 08:33:11;;;;;;;13.40;11.20;;;;;;;25.61;100.00;167276.97;4972695;28;20474;-59
2022/09/06 08:35:36;;;;;;;15.60;10.27;;;;;;;25.18;100.00;167163.97;4971557;28;20422;-59
2022/09/06 08:38:04;;;;;;;13.25;9.48;;;;;;;24.91;100.00;167093.19;4973299;28;20030;-59
2022/09/06 08:40:30;;;;;;;13.17;9.93;;;;;;;24.70;100.00;167038.78;4971368;28;20502;-59
2022/09/06 08:42:56;;;;;;;13.05;9.90;;;;;;;24.28;100.00;166927.22;4972652;28;20106;-59
2022/09/06 08:45:22;;;;;;;9.80;8.90;;;;;;;24.18;100.00;166900.00;4971590;28;20051;-59
2022/09/06 08:47:49;;;;;;;16.05;8.60;;;;;;;24.15;100.00;166891.88;4972747;28;20390;-59
2022/09/06 08:50:15;;;;;;;15.60;10.13;;;;;;;24.05;100.00;166867.38;4971635;28;20049;-59
2022/09/06 08:52:54;;;;;;;10.50;9.38;;;;;;;24.02;100.00;166857.84;4972751;28;20026;-59
2022/09/06 08:55:37;;;;;;;15.57;9.43;;;;;;;23.90;100.00;166827.88;4970959;28;20035;-59
2022/09/06 08:58:44;;;;;;;19.15;10.10;;;;;;;24.05;100.00;166867.38;4972799;28;20474;-59
2022/09/06 09:01:24;;;;;;;16.52;9.50;;;;;;;24.21;100.00;166909.53;4971611;28;20038;-59
2022/09/06 09:03:55;;;;;;;12.57;7.82;;;;;;;24.38;100.00;166953.06;4970876;28;20030;-59
2022/09/06 09:06:23;;;;;;;11.13;9.45;;;;;;;24.63;100.00;167019.69;4972432;28;20027;-59
2022/09/06 09:09:05;;;;;;;9.70;7.70;;;;;;;24.94;100.00;167101.38;4970942;28;20105;-59
2022/09/06 09:11:34;;;;;;;11.70;8.02;;;;;;;25.15;100.00;167155.78;4972171;28;20394;-59
2022/09/06 09:14:25;;;;;;;8.30;7.03;;;;;;;25.56;100.00;167264.72;4971180;28;20557;-57
2022/09/06 09:16:53;;;;;;;8.80;7.97;;;;;;;25.96;100.00;167370.84;4972200;28;20022;-57
2022/09/06 09:19:19;;;;;;;7.15;6.43;;;;;;;26.01;100.00;167381.78;4970660;28;20435;-57
2022/09/06 09:21:44;;;;;;;8.60;6.97;;;;;;;26.06;100.00;167395.38;4971905;28;20062;-58
2022/09/06 09:24:13;;;;;;;13.15;7.30;;;;;;;26.11;100.00;167409.00;4971127;28;20514;-57
2022/09/06 09:26:52;;;;;;;7.97;6.00;;;;;;;26.20;100.00;167432.19;4971590;28;20512;-57
2022/09/06 09:29:17;;;;;;;6.95;5.50;;;;;;;26.20;100.00;167432.19;4970815;28;20045;-58
2022/09/06 09:31:54;;;;;;;6.82;6.10;;;;;;;26.20;100.00;167432.19;4972045;28;20358;-57
2022/09/06 09:34:35;;;;;;;7.15;6.45;;;;;;;27.32;100.00;167729.09;4969939;28;20118;-57
2022/09/06 09:37:19;;;;;;;8.18;6.15;;;;;;;27.39;100.00;167748.16;4971018;28;20034;-57
2022/09/06 09:39:47;;;;;;;10.95;5.53;;;;;;;27.35;100.00;167735.88;4969974;28;20494;-57
2022/09/06 09:42:25;;;;;;;6.70;4.70;;;;;;;27.39;100.00;167746.75;4971710;28;20106;-57
2022/09/06 09:44:50;;;;;;;;;;;;;;;27.33;100.00;167731.75;4970873;28;20115;-57
2022/09/06 09:47:30;;;;;;;11.03;4.77;;;;;;;27.42;100.00;167753.63;4971843;28;19918;-58
2022/09/06 09:49:56;;;;;;;8.27;5.30;;;;;;;27.57;100.00;167793.13;4970058;28;21019;-58
2022/09/06 09:52:28;;;;;;;9.10;6.20;;;;;;;27.37;100.00;167741.28;4972093;28;20030;-57
2022/09/06 09:55:04;;;;;;;6.65;4.47;;;;;;;27.30;100.00;167723.63;4970201;28;20090;-58
2022/09/06 09:57:41;;;;;;;5.97;4.45;;;;;;;27.44;100.00;167760.41;4972115;28;20033;-57
2022/09/06 10:00:11;;;;;;;7.93;3.80;;;;;;;27.49;100.00;167772.69;4970697;28;20435;-57
2022/09/06 10:02:38;;;;;;;7.75;5.15;;;;;;;27.54;100.00;167786.34;4971633;28;20042;-59
2022/09/06 10:05:16;;;;;;;8.23;4.63;;;;;;;27.67;100.00;167820.34;4970442;28;20035;-60
2022/09/06 10:07:46;;;;;;;5.95;4.30;;;;;;;28.02;100.00;167913.03;4971709;28;20031;-60
2022/09/06 10:10:19;;;;;;;11.90;4.53;;;;;;;28.05;100.00;167919.81;4969835;28;20421;-59
2022/09/06 10:12:44;;;;;;;6.50;5.10;;;;;;;28.32;100.00;167992.09;4977305;28;20153;-57
2022/09/06 10:15:30;;;;;;;5.18;3.72;;;;;;;28.69;100.00;168090.25;5008136;28;20409;-58
2022/09/06 10:17:55;;;;;;;4.68;3.72;;;;;;;28.81;100.00;168122.94;4991456;28;20038;-58
2022/09/06 10:20:31;;;;;;;6.10;3.45;;;;;;;28.86;100.00;168135.22;5003298;28;20121;-58
2022/09/06 10:23:09;;;;;;;3.88;3.38;;;;;;;28.72;100.00;168098.41;5010685;28;20030;-60
2022/09/06 10:25:43;;;;;;;4.88;3.17;;;;;;;28.62;100.00;168071.13;5008586;28;20049;-60
2022/09/06 10:28:29;;;;;;;5.28;4.57;;;;;;;28.61;100.00;168068.41;5010969;28;20026;-60
2022/09/06 10:31:35;;;;;;;5.78;4.25;;;;;;;28.71;100.00;168095.66;5008683;28;20129;-60
2022/09/06 10:34:39;;;;;;;4.03;2.50;;;;;;;28.64;100.00;168076.53;5009882;28;20042;-60
2022/09/06 10:37:18;;;;;;;4.38;2.92;;;;;;;28.65;100.00;168079.28;5006340;28;20038;-61
2022/09/06 10:40:07;;;;;;;6.20;4.03;;;;;;;28.80;100.00;168118.88;4987772;28;20445;-58
2022/09/06 10:42:41;;;;;;;8.05;3.63;;;;;;;28.72;100.00;168098.41;4989682;28;20023;-58
2022/09/06 10:45:14;;;;;;;4.30;2.40;;;;;;;28.73;100.00;168101.13;4988929;28;20038;-58
2022/09/06 10:48:38;;;;;;;4.57;2.83;;;;;;;28.60;100.00;168065.66;4989671;28;20505;-58
2022/09/06 10:51:44;;;;;;;4.60;3.65;;;;;;;28.63;100.00;168073.88;4928535;29;20047;-58
2022/09/06 10:54:16;;;;;;;6.60;2.80;;;;;;;28.69;100.00;168090.25;4993816;28;20527;-58
2022/09/06 10:56:48;;;;;;;4.15;2.70;;;;;;;28.71;100.00;168095.66;4994509;28;20026;-58
2022/09/06 10:59:33;;;;;;;7.80;3.70;;;;;;;28.91;100.00;168147.50;4992685;28;20521;-58
2022/09/06 11:02:34;;;;;;;4.85;3.70;;;;;;;29.12;100.00;168204.72;4991950;28;20752;-58
2022/09/06 11:05:07;;;;;;;5.90;2.83;;;;;;;29.18;100.00;168218.34;4992418;28;20046;-58
2022/09/06 11:07:38;;;;;;;4.57;2.78;;;;;;;29.02;92.79;168176.13;4993463;28;20081;-58
2022/09/06 11:10:08;;;;;;;2.65;2.05;;;;;;;29.09;95.03;168195.19;4992323;28;20069;-58
2022/09/06 11:12:47;;;;;;;4.25;2.45;;;;;;;29.29;95.52;168248.38;4993830;28;20022;-57
2022/09/06 11:15:14;;;;;;;6.68;3.20;;;;;;;29.35;93.67;168263.38;4992188;28;20069;-58
2022/09/06 11:18:06;;;;;;;7.50;2.45;;;;;;;29.08;93.45;168193.81;4993396;28;20023;-58
2022/09/06 11:20:41;;;;;;;2.55;1.92;;;;;;;29.10;94.13;168199.28;4992115;28;20054;-58
2022/09/06 11:23:09;;;;;;;12.43;3.55;;;;;;;28.91;90.01;168148.84;4993616;28;20385;-58
2022/09/06 11:26:05;;;;;;;11.48;2.92;;;;;;;28.70;92.00;168091.59;4991936;28;20038;-58